sensor_id;sensor_type;location;lat;lon;timestamp;P1;durP1;ratioP1;P2;durP2;ratioP2
20751;SDS011;10536;51.582;5.016;2022-08-21T00:03:10;7.00;;;5.47;;
20751;SDS011;10536;51.582;5.016;2022-08-21T00:08:12;8.30;;;5.32;;
20751;SDS011;10536;51.582;5.016;2022-08-21T00:13:13;7.60;;;5.70;;
20751;SDS011;10536;51.582;5.016;2022-08-21T00:18:15;9.90;;;6.13;;
20751;SDS011;10536;51.582;5.016;2022-08-21T00:23:16;13.07;;;6.30;;
20751;SDS011;10536;51.582;5.016;2022-08-21T00:28:16;7.57;;;6.20;;
20751;SDS011;10536;51.582;5.016;2022-08-21T00:33:17;7.35;;;5.45;;
20751;SDS011;10536;51.582;5.016;2022-08-21T00:38:18;7.70;;;5.70;;
20751;SDS011;10536;51.582;5.016;2022-08-21T00:43:25;11.43;;;6.47;;
20751;SDS011;10536;51.582;5.016;2022-08-21T00:48:28;9.77;;;6.35;;
20751;SDS011;10536;51.582;5.016;2022-08-21T00:53:29;8.77;;;6.18;;
20751;SDS011;10536;51.582;5.016;2022-08-21T00:58:30;11.48;;;7.22;;
20751;SDS011;10536;51.582;5.016;2022-08-21T01:03:33;11.82;;;6.75;;
20751;SDS011;10536;51.582;5.016;2022-08-21T01:08:33;8.60;;;7.68;;
20751;SDS011;10536;51.582;5.016;2022-08-21T01:13:35;11.60;;;7.68;;
20751;SDS011;10536;51.582;5.016;2022-08-21T01:18:36;11.68;;;7.03;;
20751;SDS011;10536;51.582;5.016;2022-08-21T01:23:37;7.68;;;6.90;;
20751;SDS011;10536;51.582;5.016;2022-08-21T01:29:14;11.02;;;6.97;;
20751;SDS011;10536;51.582;5.016;2022-08-21T01:34:10;13.02;;;7.13;;
20751;SDS011;10536;51.582;5.016;2022-08-21T01:39:11;13.38;;;7.40;;
20751;SDS011;10536;51.582;5.016;2022-08-21T01:44:11;11.70;;;7.07;;
20751;SDS011;10536;51.582;5.016;2022-08-21T01:49:12;10.02;;;7.38;;
20751;SDS011;10536;51.582;5.016;2022-08-21T01:54:12;10.47;;;7.93;;
20751;SDS011;10536;51.582;5.016;2022-08-21T01:59:13;12.47;;;7.77;;
20751;SDS011;10536;51.582;5.016;2022-08-21T02:04:14;13.60;;;7.85;;
20751;SDS011;10536;51.582;5.016;2022-08-21T02:09:15;22.55;;;7.80;;
20751;SDS011;10536;51.582;5.016;2022-08-21T02:14:15;9.20;;;7.65;;
20751;SDS011;10536;51.582;5.016;2022-08-21T02:19:16;11.75;;;8.18;;
20751;SDS011;10536;51.582;5.016;2022-08-21T02:24:17;12.43;;;8.18;;
20751;SDS011;10536;51.582;5.016;2022-08-21T02:29:17;9.32;;;8.05;;
20751;SDS011;10536;51.582;5.016;2022-08-21T02:34:18;9.33;;;8.00;;
20751;SDS011;10536;51.582;5.016;2022-08-21T02:39:19;14.75;;;9.07;;
20751;SDS011;10536;51.582;5.016;2022-08-21T02:44:19;9.60;;;8.47;;
20751;SDS011;10536;51.582;5.016;2022-08-21T02:49:19;11.40;;;9.10;;
20751;SDS011;10536;51.582;5.016;2022-08-21T02:54:20;12.30;;;7.72;;
20751;SDS011;10536;51.582;5.016;2022-08-21T02:59:21;12.65;;;8.93;;
20751;SDS011;10536;51.582;5.016;2022-08-21T03:04:21;9.30;;;8.33;;
20751;SDS011;10536;51.582;5.016;2022-08-21T03:09:22;11.38;;;8.77;;
20751;SDS011;10536;51.582;5.016;2022-08-21T03:14:22;10.90;;;9.17;;
20751;SDS011;10536;51.582;5.016;2022-08-21T03:19:22;21.80;;;9.43;;
20751;SDS011;10536;51.582;5.016;2022-08-21T03:24:23;16.17;;;8.85;;
20751;SDS011;10536;51.582;5.016;2022-08-21T03:29:24;9.27;;;8.25;;
20751;SDS011;10536;51.582;5.016;2022-08-21T03:34:24;13.48;;;8.77;;
20751;SDS011;10536;51.582;5.016;2022-08-21T03:39:25;10.48;;;8.18;;
20751;SDS011;10536;51.582;5.016;2022-08-21T03:44:26;10.93;;;8.80;;
20751;SDS011;10536;51.582;5.016;2022-08-21T03:49:28;14.98;;;9.43;;
20751;SDS011;10536;51.582;5.016;2022-08-21T03:54:29;15.35;;;10.27;;
20751;SDS011;10536;51.582;5.016;2022-08-21T03:59:30;19.27;;;9.40;;
20751;SDS011;10536;51.582;5.016;2022-08-21T04:04:30;17.80;;;9.80;;
20751;SDS011;10536;51.582;5.016;2022-08-21T04:09:31;11.98;;;8.73;;
20751;SDS011;10536;51.582;5.016;2022-08-21T04:14:31;18.02;;;8.85;;
20751;SDS011;10536;51.582;5.016;2022-08-21T04:19:32;17.67;;;9.60;;
20751;SDS011;10536;51.582;5.016;2022-08-21T04:24:33;14.20;;;9.30;;
20751;SDS011;10536;51.582;5.016;2022-08-21T04:29:34;17.92;;;8.85;;
20751;SDS011;10536;51.582;5.016;2022-08-21T04:34:35;12.05;;;9.27;;
20751;SDS011;10536;51.582;5.016;2022-08-21T04:39:35;15.00;;;9.30;;
20751;SDS011;10536;51.582;5.016;2022-08-21T04:44:35;21.27;;;9.80;;
20751;SDS011;10536;51.582;5.016;2022-08-21T04:49:36;17.45;;;10.32;;
20751;SDS011;10536;51.582;5.016;2022-08-21T04:54:36;21.43;;;9.30;;
20751;SDS011;10536;51.582;5.016;2022-08-21T04:59:45;14.73;;;9.30;;
20751;SDS011;10536;51.582;5.016;2022-08-21T05:04:49;11.93;;;8.38;;
20751;SDS011;10536;51.582;5.016;2022-08-21T05:09:51;20.58;;;9.10;;
20751;SDS011;10536;51.582;5.016;2022-08-21T05:14:52;17.70;;;9.07;;
20751;SDS011;10536;51.582;5.016;2022-08-21T05:19:52;19.67;;;9.77;;
20751;SDS011;10536;51.582;5.016;2022-08-21T05:24:52;15.90;;;9.00;;
20751;SDS011;10536;51.582;5.016;2022-08-21T05:29:53;16.30;;;8.10;;
20751;SDS011;10536;51.582;5.016;2022-08-21T05:34:53;14.80;;;7.77;;
20751;SDS011;10536;51.582;5.016;2022-08-21T05:39:54;13.70;;;8.07;;
20751;SDS011;10536;51.582;5.016;2022-08-21T05:44:55;13.57;;;7.65;;
20751;SDS011;10536;51.582;5.016;2022-08-21T05:49:55;13.57;;;7.67;;
20751;SDS011;10536;51.582;5.016;2022-08-21T05:54:56;15.87;;;8.23;;
20751;SDS011;10536;51.582;5.016;2022-08-21T05:59:56;17.35;;;7.50;;
20751;SDS011;10536;51.582;5.016;2022-08-21T06:04:57;12.80;;;6.90;;
20751;SDS011;10536;51.582;5.016;2022-08-21T06:09:57;18.30;;;6.60;;
20751;SDS011;10536;51.582;5.016;2022-08-21T06:14:58;19.60;;;7.65;;
20751;SDS011;10536;51.582;5.016;2022-08-21T06:19:58;15.73;;;7.00;;
20751;SDS011;10536;51.582;5.016;2022-08-21T06:24:58;16.60;;;6.50;;
20751;SDS011;10536;51.582;5.016;2022-08-21T06:29:59;14.40;;;6.32;;
20751;SDS011;10536;51.582;5.016;2022-08-21T06:34:59;21.43;;;5.67;;
20751;SDS011;10536;51.582;5.016;2022-08-21T06:40:00;19.43;;;6.60;;
20751;SDS011;10536;51.582;5.016;2022-08-21T06:45:00;21.88;;;6.85;;
20751;SDS011;10536;51.582;5.016;2022-08-21T06:50:01;15.10;;;5.93;;
20751;SDS011;10536;51.582;5.016;2022-08-21T06:55:04;15.77;;;6.25;;
20751;SDS011;10536;51.582;5.016;2022-08-21T07:00:06;13.27;;;5.97;;
20751;SDS011;10536;51.582;5.016;2022-08-21T07:05:08;18.35;;;6.25;;
20751;SDS011;10536;51.582;5.016;2022-08-21T07:10:08;21.42;;;6.13;;
20751;SDS011;10536;51.582;5.016;2022-08-21T07:15:09;18.38;;;6.13;;
20751;SDS011;10536;51.582;5.016;2022-08-21T07:20:10;15.27;;;5.82;;
20751;SDS011;10536;51.582;5.016;2022-08-21T07:25:14;20.77;;;6.25;;
20751;SDS011;10536;51.582;5.016;2022-08-21T07:30:14;22.38;;;7.32;;
20751;SDS011;10536;51.582;5.016;2022-08-21T07:35:16;22.13;;;7.57;;
20751;SDS011;10536;51.582;5.016;2022-08-21T07:40:17;24.27;;;6.90;;
20751;SDS011;10536;51.582;5.016;2022-08-21T07:45:19;19.90;;;6.80;;
20751;SDS011;10536;51.582;5.016;2022-08-21T07:50:21;21.55;;;6.65;;
20751;SDS011;10536;51.582;5.016;2022-08-21T07:55:22;14.20;;;5.68;;
20751;SDS011;10536;51.582;5.016;2022-08-21T08:00:24;15.10;;;5.47;;
20751;SDS011;10536;51.582;5.016;2022-08-21T08:05:28;17.90;;;5.22;;
20751;SDS011;10536;51.582;5.016;2022-08-21T08:10:29;13.17;;;4.90;;
20751;SDS011;10536;51.582;5.016;2022-08-21T08:15:30;12.20;;;5.03;;
20751;SDS011;10536;51.582;5.016;2022-08-21T08:20:31;19.33;;;4.85;;
20751;SDS011;10536;51.582;5.016;2022-08-21T08:25:32;17.95;;;4.68;;
20751;SDS011;10536;51.582;5.016;2022-08-21T08:30:32;12.63;;;4.70;;
20751;SDS011;10536;51.582;5.016;2022-08-21T08:35:33;18.23;;;5.03;;
20751;SDS011;10536;51.582;5.016;2022-08-21T08:45:47;15.40;;;4.68;;
20751;SDS011;10536;51.582;5.016;2022-08-21T08:50:54;15.60;;;4.97;;
20751;SDS011;10536;51.582;5.016;2022-08-21T08:56:02;13.35;;;4.32;;
20751;SDS011;10536;51.582;5.016;2022-08-21T09:01:05;14.27;;;4.00;;
20751;SDS011;10536;51.582;5.016;2022-08-21T09:11:41;7.63;;;2.75;;
20751;SDS011;10536;51.582;5.016;2022-08-21T09:16:48;8.07;;;3.00;;
20751;SDS011;10536;51.582;5.016;2022-08-21T09:22:59;13.68;;;3.22;;
20751;SDS011;10536;51.582;5.016;2022-08-21T09:27:51;15.18;;;3.08;;
20751;SDS011;10536;51.582;5.016;2022-08-21T09:32:51;10.88;;;2.97;;
20751;SDS011;10536;51.582;5.016;2022-08-21T09:48:24;7.28;;;2.00;;
20751;SDS011;10536;51.582;5.016;2022-08-21T09:53:26;10.20;;;2.58;;
20751;SDS011;10536;51.582;5.016;2022-08-21T09:58:32;9.82;;;2.45;;
20751;SDS011;10536;51.582;5.016;2022-08-21T10:03:35;10.50;;;1.88;;
20751;SDS011;10536;51.582;5.016;2022-08-21T10:08:39;5.30;;;1.95;;
20751;SDS011;10536;51.582;5.016;2022-08-21T10:30:17;9.13;;;2.05;;
20751;SDS011;10536;51.582;5.016;2022-08-21T10:40:27;9.38;;;1.83;;
20751;SDS011;10536;51.582;5.016;2022-08-21T10:50:52;7.97;;;2.08;;
20751;SDS011;10536;51.582;5.016;2022-08-21T10:56:02;8.02;;;1.95;;
20751;SDS011;10536;51.582;5.016;2022-08-21T11:01:14;7.28;;;2.20;;
20751;SDS011;10536;51.582;5.016;2022-08-21T11:06:29;10.45;;;2.22;;
20751;SDS011;10536;51.582;5.016;2022-08-21T11:11:34;7.28;;;1.65;;
20751;SDS011;10536;51.582;5.016;2022-08-21T11:16:42;5.55;;;2.03;;
20751;SDS011;10536;51.582;5.016;2022-08-21T11:27:06;3.25;;;1.13;;
20751;SDS011;10536;51.582;5.016;2022-08-21T11:37:47;6.20;;;1.83;;
20751;SDS011;10536;51.582;5.016;2022-08-21T11:48:25;6.65;;;1.80;;
20751;SDS011;10536;51.582;5.016;2022-08-21T11:53:48;10.70;;;1.90;;
20751;SDS011;10536;51.582;5.016;2022-08-21T11:59:10;7.07;;;1.83;;
20751;SDS011;10536;51.582;5.016;2022-08-21T12:14:23;4.68;;;1.40;;
20751;SDS011;10536;51.582;5.016;2022-08-21T12:29:31;10.55;;;2.10;;
20751;SDS011;10536;51.582;5.016;2022-08-21T12:34:37;6.40;;;1.63;;
20751;SDS011;10536;51.582;5.016;2022-08-21T12:39:46;9.80;;;2.28;;
20751;SDS011;10536;51.582;5.016;2022-08-21T12:44:55;4.93;;;1.73;;
20751;SDS011;10536;51.582;5.016;2022-08-21T12:50:09;10.05;;;1.92;;
20751;SDS011;10536;51.582;5.016;2022-08-21T12:55:15;8.20;;;2.00;;
20751;SDS011;10536;51.582;5.016;2022-08-21T13:00:28;13.57;;;2.00;;
20751;SDS011;10536;51.582;5.016;2022-08-21T13:05:33;7.03;;;2.20;;
20751;SDS011;10536;51.582;5.016;2022-08-21T13:10:36;5.97;;;1.77;;
20751;SDS011;10536;51.582;5.016;2022-08-21T13:15:38;7.90;;;2.00;;
20751;SDS011;10536;51.582;5.016;2022-08-21T13:20:40;6.43;;;1.65;;
20751;SDS011;10536;51.582;5.016;2022-08-21T13:25:42;7.82;;;1.80;;
20751;SDS011;10536;51.582;5.016;2022-08-21T13:30:49;10.07;;;2.10;;
20751;SDS011;10536;51.582;5.016;2022-08-21T13:35:57;4.75;;;1.80;;
20751;SDS011;10536;51.582;5.016;2022-08-21T13:41:04;6.40;;;1.63;;
20751;SDS011;10536;51.582;5.016;2022-08-21T13:46:07;5.85;;;1.35;;
20751;SDS011;10536;51.582;5.016;2022-08-21T13:51:11;6.80;;;2.03;;
20751;SDS011;10536;51.582;5.016;2022-08-21T13:56:27;4.97;;;1.45;;
20751;SDS011;10536;51.582;5.016;2022-08-21T14:01:33;6.95;;;1.92;;
20751;SDS011;10536;51.582;5.016;2022-08-21T14:06:58;6.13;;;1.45;;
20751;SDS011;10536;51.582;5.016;2022-08-21T14:12:02;5.57;;;1.38;;
20751;SDS011;10536;51.582;5.016;2022-08-21T14:17:14;4.78;;;1.67;;
20751;SDS011;10536;51.582;5.016;2022-08-21T14:27:35;3.53;;;1.90;;
20751;SDS011;10536;51.582;5.016;2022-08-21T14:32:39;5.68;;;2.10;;
20751;SDS011;10536;51.582;5.016;2022-08-21T14:37:42;8.57;;;2.05;;
20751;SDS011;10536;51.582;5.016;2022-08-21T14:42:43;6.03;;;2.30;;
20751;SDS011;10536;51.582;5.016;2022-08-21T14:47:45;8.85;;;1.80;;
20751;SDS011;10536;51.582;5.016;2022-08-21T14:52:46;10.23;;;1.75;;
20751;SDS011;10536;51.582;5.016;2022-08-21T14:57:47;5.38;;;1.77;;
20751;SDS011;10536;51.582;5.016;2022-08-21T15:02:51;10.82;;;2.00;;
20751;SDS011;10536;51.582;5.016;2022-08-21T15:07:52;4.10;;;1.53;;
20751;SDS011;10536;51.582;5.016;2022-08-21T15:12:52;6.00;;;1.70;;
20751;SDS011;10536;51.582;5.016;2022-08-21T15:17:52;4.35;;;2.05;;
20751;SDS011;10536;51.582;5.016;2022-08-21T15:22:53;6.40;;;2.20;;
20751;SDS011;10536;51.582;5.016;2022-08-21T15:27:53;6.23;;;1.70;;
20751;SDS011;10536;51.582;5.016;2022-08-21T15:32:54;5.43;;;2.17;;
20751;SDS011;10536;51.582;5.016;2022-08-21T15:37:54;7.07;;;2.40;;
20751;SDS011;10536;51.582;5.016;2022-08-21T15:42:56;6.57;;;1.90;;
20751;SDS011;10536;51.582;5.016;2022-08-21T15:47:59;4.78;;;1.77;;
20751;SDS011;10536;51.582;5.016;2022-08-21T15:52:59;6.50;;;2.38;;
20751;SDS011;10536;51.582;5.016;2022-08-21T15:57:59;4.53;;;1.87;;
20751;SDS011;10536;51.582;5.016;2022-08-21T16:03:00;9.98;;;2.30;;
20751;SDS011;10536;51.582;5.016;2022-08-21T16:08:06;5.07;;;2.00;;
20751;SDS011;10536;51.582;5.016;2022-08-21T16:13:07;5.13;;;2.30;;
20751;SDS011;10536;51.582;5.016;2022-08-21T16:18:17;5.70;;;2.20;;
20751;SDS011;10536;51.582;5.016;2022-08-21T16:23:19;7.43;;;2.78;;
20751;SDS011;10536;51.582;5.016;2022-08-21T16:28:19;10.17;;;2.30;;
20751;SDS011;10536;51.582;5.016;2022-08-21T16:33:42;6.85;;;2.08;;
20751;SDS011;10536;51.582;5.016;2022-08-21T16:38:43;7.55;;;2.17;;
20751;SDS011;10536;51.582;5.016;2022-08-21T16:43:44;6.82;;;2.33;;
20751;SDS011;10536;51.582;5.016;2022-08-21T16:48:45;12.88;;;2.50;;
20751;SDS011;10536;51.582;5.016;2022-08-21T16:53:45;8.18;;;2.05;;
20751;SDS011;10536;51.582;5.016;2022-08-21T16:58:47;6.28;;;2.10;;
20751;SDS011;10536;51.582;5.016;2022-08-21T17:03:48;8.07;;;2.50;;
20751;SDS011;10536;51.582;5.016;2022-08-21T17:08:50;7.38;;;2.67;;
20751;SDS011;10536;51.582;5.016;2022-08-21T17:13:54;8.65;;;2.40;;
20751;SDS011;10536;51.582;5.016;2022-08-21T17:18:59;7.13;;;2.97;;
20751;SDS011;10536;51.582;5.016;2022-08-21T17:23:59;10.52;;;3.90;;
20751;SDS011;10536;51.582;5.016;2022-08-21T17:29:00;6.25;;;2.17;;
20751;SDS011;10536;51.582;5.016;2022-08-21T17:34:00;8.10;;;2.08;;
20751;SDS011;10536;51.582;5.016;2022-08-21T17:39:02;4.25;;;1.77;;
20751;SDS011;10536;51.582;5.016;2022-08-21T17:49:55;6.45;;;2.42;;
20751;SDS011;10536;51.582;5.016;2022-08-21T17:54:58;15.80;;;4.47;;
20751;SDS011;10536;51.582;5.016;2022-08-21T17:59:59;4.90;;;1.67;;
20751;SDS011;10536;51.582;5.016;2022-08-21T18:05:01;9.35;;;2.70;;
20751;SDS011;10536;51.582;5.016;2022-08-21T18:10:03;6.10;;;2.40;;
20751;SDS011;10536;51.582;5.016;2022-08-21T18:20:07;5.53;;;1.50;;
20751;SDS011;10536;51.582;5.016;2022-08-21T18:25:08;6.03;;;1.77;;
20751;SDS011;10536;51.582;5.016;2022-08-21T18:30:11;6.22;;;1.90;;
20751;SDS011;10536;51.582;5.016;2022-08-21T18:35:17;7.75;;;2.00;;
20751;SDS011;10536;51.582;5.016;2022-08-21T18:40:28;9.52;;;3.08;;
20751;SDS011;10536;51.582;5.016;2022-08-21T18:45:31;7.23;;;1.93;;
20751;SDS011;10536;51.582;5.016;2022-08-21T18:55:38;6.82;;;2.10;;
20751;SDS011;10536;51.582;5.016;2022-08-21T19:00:43;6.93;;;1.80;;
20751;SDS011;10536;51.582;5.016;2022-08-21T19:05:46;11.10;;;2.33;;
20751;SDS011;10536;51.582;5.016;2022-08-21T19:10:47;6.40;;;1.95;;
20751;SDS011;10536;51.582;5.016;2022-08-21T19:15:50;10.70;;;2.65;;
20751;SDS011;10536;51.582;5.016;2022-08-21T19:20:55;4.47;;;1.98;;
20751;SDS011;10536;51.582;5.016;2022-08-21T19:25:57;4.97;;;1.73;;
20751;SDS011;10536;51.582;5.016;2022-08-21T19:31:10;7.60;;;2.17;;
20751;SDS011;10536;51.582;5.016;2022-08-21T19:36:14;7.90;;;2.63;;
20751;SDS011;10536;51.582;5.016;2022-08-21T19:41:15;8.60;;;2.60;;
20751;SDS011;10536;51.582;5.016;2022-08-21T19:46:27;11.20;;;2.70;;
20751;SDS011;10536;51.582;5.016;2022-08-21T19:51:30;6.73;;;2.20;;
20751;SDS011;10536;51.582;5.016;2022-08-21T19:56:32;8.43;;;2.40;;
20751;SDS011;10536;51.582;5.016;2022-08-21T20:01:32;11.55;;;2.42;;
20751;SDS011;10536;51.582;5.016;2022-08-21T20:06:33;8.30;;;2.20;;
20751;SDS011;10536;51.582;5.016;2022-08-21T20:11:36;7.78;;;2.28;;
20751;SDS011;10536;51.582;5.016;2022-08-21T20:21:39;10.50;;;2.83;;
20751;SDS011;10536;51.582;5.016;2022-08-21T20:26:41;5.32;;;2.75;;
20751;SDS011;10536;51.582;5.016;2022-08-21T20:31:43;10.23;;;2.70;;
20751;SDS011;10536;51.582;5.016;2022-08-21T20:36:43;12.43;;;2.88;;
20751;SDS011;10536;51.582;5.016;2022-08-21T20:41:53;6.90;;;2.92;;
20751;SDS011;10536;51.582;5.016;2022-08-21T20:46:54;6.55;;;3.05;;
20751;SDS011;10536;51.582;5.016;2022-08-21T20:51:56;6.50;;;3.30;;
20751;SDS011;10536;51.582;5.016;2022-08-21T21:02:11;9.90;;;3.53;;
20751;SDS011;10536;51.582;5.016;2022-08-21T21:07:16;8.52;;;3.00;;
20751;SDS011;10536;51.582;5.016;2022-08-21T21:12:26;12.80;;;3.38;;
20751;SDS011;10536;51.582;5.016;2022-08-21T21:23:22;7.25;;;2.50;;
20751;SDS011;10536;51.582;5.016;2022-08-21T21:34:20;5.53;;;3.42;;
20751;SDS011;10536;51.582;5.016;2022-08-21T21:49:51;7.90;;;2.78;;
20751;SDS011;10536;51.582;5.016;2022-08-21T22:00:33;7.95;;;3.38;;
20751;SDS011;10536;51.582;5.016;2022-08-21T22:11:07;7.30;;;3.05;;
20751;SDS011;10536;51.582;5.016;2022-08-21T22:16:19;9.18;;;3.17;;
20751;SDS011;10536;51.582;5.016;2022-08-21T22:21:22;10.15;;;3.53;;
20751;SDS011;10536;51.582;5.016;2022-08-21T22:26:35;8.60;;;3.20;;
20751;SDS011;10536;51.582;5.016;2022-08-21T22:31:38;6.22;;;3.20;;
20751;SDS011;10536;51.582;5.016;2022-08-21T22:36:47;8.43;;;3.13;;
20751;SDS011;10536;51.582;5.016;2022-08-21T22:41:54;8.30;;;2.60;;
20751;SDS011;10536;51.582;5.016;2022-08-21T22:46:56;8.23;;;3.30;;
20751;SDS011;10536;51.582;5.016;2022-08-21T22:52:22;9.70;;;3.10;;
20751;SDS011;10536;51.582;5.016;2022-08-21T22:57:30;7.28;;;3.20;;
20751;SDS011;10536;51.582;5.016;2022-08-21T23:07:44;6.22;;;3.25;;
20751;SDS011;10536;51.582;5.016;2022-08-21T23:12:48;8.48;;;3.20;;
20751;SDS011;10536;51.582;5.016;2022-08-21T23:18:04;7.80;;;3.17;;
20751;SDS011;10536;51.582;5.016;2022-08-21T23:23:22;7.60;;;3.65;;
20751;SDS011;10536;51.582;5.016;2022-08-21T23:45:17;11.13;;;3.90;;
20751;SDS011;10536;51.582;5.016;2022-08-21T23:50:38;10.40;;;3.58;;
20751;SDS011;10536;51.582;5.016;2022-08-21T23:56:10;8.02;;;3.40;;
